createdAt,value
2022-09-30T00:00:33.322Z,19.10
2022-09-30T00:03:00.005Z,18.08
2022-09-30T00:05:26.768Z,18.73
2022-09-30T00:07:53.452Z,18.25
2022-09-30T00:10:20.113Z,20.13
2022-09-30T00:12:51.147Z,18.88
2022-09-30T00:15:18.348Z,17.52
2022-09-30T00:17:44.984Z,18.75
2022-09-30T00:20:11.664Z,16.63
2022-09-30T00:22:38.306Z,16.80
2022-09-30T00:25:05.232Z,17.98
2022-09-30T00:27:32.045Z,17.13
2022-09-30T00:29:58.889Z,16.33
2022-09-30T00:32:25.607Z,16.45
2022-09-30T00:34:52.303Z,16.48
2022-09-30T00:37:19.053Z,17.00
2022-09-30T00:39:45.795Z,16.58
2022-09-30T00:42:14.784Z,15.48
2022-09-30T00:44:52.745Z,14.27
2022-09-30T00:47:38.399Z,15.70
2022-09-30T00:50:26.222Z,14.40
2022-09-30T00:52:58.239Z,14.95
2022-09-30T00:55:32.171Z,16.23
2022-09-30T00:58:00.141Z,14.68
2022-09-30T01:00:26.867Z,16.05
2022-09-30T01:02:54.557Z,16.20
2022-09-30T01:05:21.648Z,14.55
2022-09-30T01:07:49.326Z,16.70
2022-09-30T01:10:16.183Z,16.17
2022-09-30T01:12:42.901Z,15.93
2022-09-30T01:15:10.086Z,16.08
2022-09-30T01:17:36.722Z,16.83
2022-09-30T01:20:18.391Z,16.48
2022-09-30T01:23:17.404Z,15.07
2022-09-30T01:26:05.384Z,14.68
2022-09-30T01:28:43.776Z,16.05
2022-09-30T01:31:36.358Z,16.08
2022-09-30T01:34:25.365Z,16.17
2022-09-30T01:37:10.663Z,15.88
2022-09-30T01:39:46.564Z,16.58
2022-09-30T01:42:21.524Z,18.17
2022-09-30T01:45:26.673Z,17.27
2022-09-30T01:48:01.088Z,17.20
2022-09-30T01:50:56.694Z,17.75
2022-09-30T01:53:55.819Z,18.42
2022-09-30T01:56:30.292Z,18.55
2022-09-30T01:58:58.035Z,18.67
2022-09-30T02:01:42.458Z,18.70
2022-09-30T02:04:13.367Z,20.23
2022-09-30T02:06:43.166Z,19.15
2022-09-30T02:09:15.501Z,18.92
2022-09-30T02:11:42.886Z,20.08
2022-09-30T02:14:17.142Z,20.27
2022-09-30T02:16:48.921Z,20.50
2022-09-30T02:19:15.559Z,21.88
2022-09-30T02:21:43.558Z,24.20
2022-09-30T02:24:13.323Z,23.60
2022-09-30T02:26:42.283Z,24.95
2022-09-30T02:29:23.981Z,25.38
2022-09-30T02:31:54.167Z,26.15
2022-09-30T02:34:25.497Z,24.50
2022-09-30T02:37:07.579Z,27.80
2022-09-30T02:40:11.212Z,27.95
2022-09-30T02:42:39.309Z,28.48
2022-09-30T02:45:10.448Z,30.70
2022-09-30T02:47:55.919Z,27.70
2022-09-30T02:50:45.061Z,29.20
2022-09-30T02:53:14.814Z,27.45
2022-09-30T02:56:06.284Z,29.02
2022-09-30T02:58:34.932Z,29.67
2022-09-30T03:01:01.583Z,30.20
2022-09-30T03:03:32.903Z,28.30
2022-09-30T03:05:59.483Z,28.17
2022-09-30T03:08:26.555Z,29.17
2022-09-30T03:10:53.395Z,29.23
2022-09-30T03:13:41.231Z,31.52
2022-09-30T03:16:26.755Z,32.90
2022-09-30T03:22:04.454Z,27.73
2022-09-30T03:24:40.181Z,33.28
2022-09-30T03:27:16.405Z,32.70
2022-09-30T03:30:06.214Z,31.92
2022-09-30T03:33:05.223Z,32.05
2022-09-30T03:35:53.071Z,32.28
2022-09-30T03:38:31.586Z,31.63
2022-09-30T03:41:04.065Z,32.20
2022-09-30T03:43:43.941Z,30.40
2022-09-30T03:46:14.666Z,29.65
2022-09-30T03:48:41.940Z,32.45
2022-09-30T03:51:09.485Z,34.67
2022-09-30T03:53:41.069Z,35.10
2022-09-30T03:56:08.004Z,35.35
2022-09-30T03:58:34.984Z,39.72
2022-09-30T04:01:01.680Z,46.13
2022-09-30T04:03:28.672Z,58.65
2022-09-30T04:05:55.515Z,69.50
2022-09-30T04:08:23.096Z,63.22
2022-09-30T04:10:49.766Z,85.55
2022-09-30T04:13:16.374Z,94.35
2022-09-30T04:15:43.037Z,67.95
2022-09-30T04:18:09.654Z,77.32
2022-09-30T04:20:36.251Z,91.38
2022-09-30T04:23:03.964Z,75.55
2022-09-30T04:25:30.791Z,68.68
2022-09-30T04:27:57.763Z,65.15
2022-09-30T04:30:27.238Z,65.80
2022-09-30T04:32:55.746Z,66.85
2022-09-30T04:35:23.037Z,67.45
2022-09-30T04:37:49.670Z,68.68
2022-09-30T04:40:17.192Z,108.32
2022-09-30T04:42:44.060Z,93.43
2022-09-30T04:45:12.658Z,62.88
2022-09-30T04:47:43.211Z,115.28
2022-09-30T04:50:09.909Z,64.82
2022-09-30T04:52:38.363Z,73.03
2022-09-30T04:55:05.856Z,79.43
2022-09-30T04:57:32.537Z,53.92
2022-09-30T04:59:59.505Z,57.13
2022-09-30T05:02:26.215Z,51.67
2022-09-30T05:04:54.146Z,53.58
2022-09-30T05:07:21.237Z,82.85
2022-09-30T05:09:47.977Z,44.00
2022-09-30T05:12:15.779Z,84.60
2022-09-30T05:14:42.749Z,44.97
2022-09-30T05:17:09.571Z,41.78
2022-09-30T05:19:36.161Z,38.30
2022-09-30T05:22:03.626Z,86.88
2022-09-30T05:24:31.004Z,62.40
2022-09-30T05:26:57.604Z,50.85
2022-09-30T05:29:24.355Z,37.67
2022-09-30T05:31:51.235Z,36.40
2022-09-30T05:34:17.953Z,66.00
2022-09-30T05:36:44.636Z,77.45
2022-09-30T05:39:11.837Z,53.47
2022-09-30T05:41:38.526Z,33.65
2022-09-30T05:44:05.309Z,31.88
2022-09-30T05:46:31.988Z,30.52
2022-09-30T05:48:58.621Z,31.08
2022-09-30T05:51:25.253Z,33.47
2022-09-30T05:53:51.900Z,50.67
2022-09-30T05:56:18.645Z,32.17
2022-09-30T05:58:45.310Z,29.20
2022-09-30T06:01:14.226Z,40.53
2022-09-30T06:03:42.823Z,28.83
2022-09-30T06:06:10.181Z,28.70
2022-09-30T06:08:36.824Z,28.50
2022-09-30T06:11:11.092Z,28.83
2022-09-30T06:13:38.125Z,27.38
2022-09-30T06:16:05.310Z,28.83
2022-09-30T06:18:32.192Z,25.85
2022-09-30T06:21:04.511Z,30.25
2022-09-30T06:23:32.186Z,29.05
2022-09-30T06:25:58.771Z,28.02
2022-09-30T06:28:25.427Z,29.23
2022-09-30T06:30:52.035Z,30.63
2022-09-30T06:33:18.757Z,27.63
2022-09-30T06:35:47.448Z,29.30
2022-09-30T06:38:17.298Z,27.17
2022-09-30T06:40:44.991Z,28.17
2022-09-30T06:43:11.794Z,27.20
2022-09-30T06:45:38.933Z,27.85
2022-09-30T06:48:08.434Z,26.55
2022-09-30T06:50:35.510Z,27.05
2022-09-30T06:53:06.331Z,26.23
2022-09-30T06:55:39.346Z,27.13
2022-09-30T06:58:11.331Z,27.70
2022-09-30T07:00:37.996Z,28.25
2022-09-30T07:03:09.692Z,28.15
2022-09-30T07:05:37.482Z,26.63
2022-09-30T07:08:04.357Z,29.25
2022-09-30T07:10:30.935Z,27.88
2022-09-30T07:12:57.589Z,27.98
2022-09-30T07:15:24.244Z,26.58
2022-09-30T07:17:54.915Z,26.83
2022-09-30T07:20:21.484Z,28.13
2022-09-30T07:22:48.221Z,27.98
2022-09-30T07:25:15.821Z,28.00
2022-09-30T07:27:42.446Z,28.77
2022-09-30T07:30:14.160Z,26.20
2022-09-30T07:32:44.867Z,27.13
2022-09-30T07:35:11.547Z,26.30
2022-09-30T07:37:38.538Z,25.10
2022-09-30T07:40:07.054Z,24.35
2022-09-30T07:42:37.717Z,26.23
2022-09-30T07:45:04.762Z,26.35
2022-09-30T07:47:31.354Z,27.02
2022-09-30T07:49:57.976Z,27.48
2022-09-30T07:52:24.575Z,26.02
2022-09-30T07:54:51.215Z,27.13
2022-09-30T07:57:18.157Z,26.75
2022-09-30T07:59:44.809Z,25.35
2022-09-30T08:02:15.488Z,27.50
2022-09-30T08:04:44.363Z,24.88
2022-09-30T08:07:14.097Z,27.15
2022-09-30T08:09:40.862Z,26.05
2022-09-30T08:12:07.633Z,28.38
2022-09-30T08:14:34.340Z,27.23
2022-09-30T08:17:01.698Z,28.02
2022-09-30T08:19:29.817Z,27.30
2022-09-30T08:21:57.277Z,27.00
2022-09-30T08:24:25.161Z,25.58
2022-09-30T08:26:52.433Z,27.95
2022-09-30T08:32:06.452Z,26.48
2022-09-30T08:34:35.694Z,29.48
2022-09-30T08:37:07.847Z,28.02
2022-09-30T08:39:35.840Z,27.40
2022-09-30T08:42:32.258Z,27.33
2022-09-30T08:45:10.699Z,26.15
2022-09-30T08:47:53.125Z,27.10
2022-09-30T08:50:19.874Z,25.58
2022-09-30T08:52:52.666Z,26.10
2022-09-30T08:55:24.522Z,28.05
2022-09-30T08:57:53.065Z,26.08
2022-09-30T09:00:21.014Z,25.77
2022-09-30T09:02:57.515Z,27.20
2022-09-30T09:05:39.607Z,27.73
2022-09-30T09:08:21.550Z,27.75
2022-09-30T09:10:54.653Z,27.20
2022-09-30T09:13:28.293Z,24.55
2022-09-30T09:16:24.144Z,26.70
2022-09-30T09:18:52.209Z,25.63
2022-09-30T09:21:32.120Z,26.17
2022-09-30T09:24:01.950Z,26.92
2022-09-30T09:26:35.432Z,27.52
2022-09-30T09:29:38.459Z,29.25
2022-09-30T09:32:17.718Z,27.67
2022-09-30T09:34:46.338Z,26.58
2022-09-30T09:37:19.737Z,26.20
2022-09-30T09:40:07.782Z,27.05
2022-09-30T09:42:49.390Z,28.17
2022-09-30T09:45:50.124Z,29.48
2022-09-30T09:48:17.601Z,33.92
2022-09-30T09:51:11.722Z,40.38
2022-09-30T09:53:58.223Z,35.22
2022-09-30T09:56:34.234Z,28.10
2022-09-30T09:59:19.349Z,29.27
2022-09-30T10:01:54.350Z,29.42
2022-09-30T10:04:27.417Z,25.43
2022-09-30T10:07:01.971Z,25.08
2022-09-30T10:09:36.754Z,24.45
2022-09-30T10:12:06.336Z,25.60
2022-09-30T10:14:32.879Z,26.98
2022-09-30T10:17:03.977Z,23.80
2022-09-30T10:19:33.239Z,25.15
2022-09-30T10:22:19.343Z,25.10
2022-09-30T10:24:46.077Z,25.40
2022-09-30T10:27:32.295Z,24.60
2022-09-30T10:29:59.000Z,22.95
2022-09-30T10:32:25.933Z,21.27
2022-09-30T10:34:56.916Z,21.15
2022-09-30T10:37:24.401Z,20.60
2022-09-30T10:40:06.057Z,22.88
2022-09-30T10:42:34.755Z,22.70
2022-09-30T10:45:18.520Z,19.73
2022-09-30T10:47:48.683Z,21.35
2022-09-30T10:50:17.425Z,19.48
2022-09-30T10:52:55.073Z,21.83
2022-09-30T10:55:22.154Z,23.88
2022-09-30T10:57:50.667Z,23.17
2022-09-30T11:00:21.956Z,27.50
2022-09-30T11:03:03.079Z,24.30
2022-09-30T11:05:39.657Z,22.45
2022-09-30T11:08:22.771Z,24.83
2022-09-30T11:11:14.325Z,24.95
2022-09-30T11:13:46.888Z,19.08
2022-09-30T11:16:44.483Z,20.80
2022-09-30T11:19:16.428Z,20.40
2022-09-30T11:21:51.480Z,21.00
2022-09-30T11:24:36.225Z,18.88
2022-09-30T11:27:30.331Z,18.63
2022-09-30T11:30:17.125Z,18.40
2022-09-30T11:32:49.730Z,17.88
2022-09-30T11:35:19.054Z,17.00
2022-09-30T11:38:17.768Z,18.80
2022-09-30T11:41:03.204Z,17.17
2022-09-30T11:43:59.064Z,18.60
2022-09-30T11:46:46.145Z,20.23
2022-09-30T11:49:31.315Z,21.70
2022-09-30T11:54:50.511Z,23.25
2022-09-30T11:57:32.214Z,24.77
2022-09-30T12:00:05.542Z,21.15
2022-09-30T12:02:38.157Z,22.38
2022-09-30T12:05:12.273Z,21.45
2022-09-30T12:08:02.818Z,22.92
2022-09-30T12:10:36.551Z,22.65
2022-09-30T12:13:06.752Z,21.70
2022-09-30T12:15:34.095Z,20.88
2022-09-30T12:18:06.399Z,22.00
2022-09-30T12:20:49.933Z,22.50
2022-09-30T12:23:40.165Z,21.42
2022-09-30T12:26:06.932Z,22.20
2022-09-30T12:29:11.054Z,23.30
2022-09-30T12:31:37.810Z,22.10
2022-09-30T12:34:16.404Z,20.67
2022-09-30T12:36:49.227Z,23.27
2022-09-30T12:39:34.901Z,21.40
2022-09-30T12:42:21.788Z,21.58
2022-09-30T12:44:52.641Z,22.17
2022-09-30T12:47:28.183Z,20.42
2022-09-30T12:49:57.719Z,20.13
2022-09-30T12:52:24.596Z,20.15
2022-09-30T12:54:56.605Z,20.35
2022-09-30T12:57:29.714Z,21.55
2022-09-30T13:00:01.507Z,22.23
2022-09-30T13:02:37.711Z,22.40
2022-09-30T13:05:39.240Z,21.60
2022-09-30T13:08:05.852Z,22.52
2022-09-30T13:10:38.411Z,21.02
2022-09-30T13:13:11.060Z,23.40
2022-09-30T13:15:42.560Z,23.02
2022-09-30T13:18:21.362Z,20.23
2022-09-30T13:20:59.250Z,19.60
2022-09-30T13:23:48.321Z,22.08
2022-09-30T13:26:33.475Z,24.05
2022-09-30T13:29:00.474Z,22.67
2022-09-30T13:31:28.692Z,21.40
2022-09-30T13:34:01.532Z,20.48
2022-09-30T13:36:46.611Z,22.50
2022-09-30T13:39:20.978Z,20.50
2022-09-30T13:42:16.596Z,21.88
2022-09-30T13:47:33.822Z,22.60
2022-09-30T13:50:13.899Z,23.58
2022-09-30T13:52:42.006Z,24.25
2022-09-30T13:55:25.642Z,24.83
2022-09-30T13:58:07.269Z,22.08
2022-09-30T14:00:47.895Z,21.27
2022-09-30T14:03:38.851Z,21.98
2022-09-30T14:06:27.870Z,23.67
2022-09-30T14:09:12.678Z,24.05
2022-09-30T14:12:09.607Z,22.23
2022-09-30T14:14:36.252Z,24.48
2022-09-30T14:17:24.169Z,24.55
2022-09-30T14:20:03.612Z,23.27
2022-09-30T14:22:30.556Z,25.50
2022-09-30T14:24:57.950Z,24.27
2022-09-30T14:27:36.406Z,24.88
2022-09-30T14:30:13.614Z,26.17
2022-09-30T14:32:56.866Z,25.05
2022-09-30T14:35:28.684Z,23.67
2022-09-30T14:38:02.999Z,25.63
2022-09-30T14:40:32.117Z,26.90
2022-09-30T14:43:05.076Z,25.80
2022-09-30T14:45:34.374Z,24.45
2022-09-30T14:48:14.554Z,30.15
2022-09-30T14:50:48.536Z,27.90
2022-09-30T14:53:33.006Z,28.40
2022-09-30T14:56:00.374Z,26.37
2022-09-30T14:58:32.132Z,27.40
2022-09-30T15:00:58.766Z,26.60
2022-09-30T15:03:27.143Z,24.60
2022-09-30T15:05:54.035Z,28.40
2022-09-30T15:08:22.017Z,25.33
2022-09-30T15:10:50.986Z,26.67
2022-09-30T15:13:18.973Z,27.98
2022-09-30T15:15:46.082Z,27.80
2022-09-30T15:18:33.892Z,27.77
2022-09-30T15:21:05.640Z,28.77
2022-09-30T15:23:33.822Z,29.67
2022-09-30T15:26:01.356Z,30.25
2022-09-30T15:28:28.907Z,30.73
2022-09-30T15:30:58.474Z,30.25
2022-09-30T15:33:28.231Z,30.30
2022-09-30T15:36:07.009Z,29.95
2022-09-30T15:38:40.496Z,30.45
2022-09-30T15:41:17.397Z,34.10
2022-09-30T15:43:51.694Z,36.45
2022-09-30T15:46:31.855Z,37.13
2022-09-30T15:49:03.552Z,37.47
2022-09-30T15:51:39.396Z,34.50
2022-09-30T15:54:15.185Z,34.20
2022-09-30T15:56:43.224Z,36.60
2022-09-30T15:59:11.574Z,36.80
2022-09-30T16:01:43.168Z,36.40
2022-09-30T16:04:14.348Z,33.90
2022-09-30T16:06:40.917Z,36.03
2022-09-30T16:09:31.942Z,34.08
2022-09-30T16:12:13.773Z,35.55
2022-09-30T16:15:00.356Z,37.67
2022-09-30T16:17:38.135Z,40.58
2022-09-30T16:20:08.620Z,40.65
2022-09-30T16:22:41.183Z,41.63
2022-09-30T16:25:17.370Z,41.25
2022-09-30T16:27:44.002Z,42.25
2022-09-30T16:30:15.871Z,41.72
2022-09-30T16:32:44.781Z,40.50
2022-09-30T16:35:20.352Z,44.72
2022-09-30T16:37:48.454Z,43.00
2022-09-30T16:40:19.840Z,42.17
2022-09-30T16:42:46.792Z,41.30
2022-09-30T16:45:15.115Z,41.67
2022-09-30T16:47:42.684Z,41.17
2022-09-30T16:50:21.428Z,41.88
2022-09-30T16:52:48.134Z,41.53
2022-09-30T16:57:47.093Z,43.15
2022-09-30T17:00:20.114Z,43.83
2022-09-30T17:02:48.242Z,41.78
2022-09-30T17:05:20.398Z,45.72
2022-09-30T17:07:49.563Z,42.97
2022-09-30T17:10:31.098Z,43.92
2022-09-30T17:13:03.500Z,44.13
2022-09-30T17:15:31.905Z,44.10
2022-09-30T17:17:59.320Z,43.13
2022-09-30T17:20:26.859Z,43.90
2022-09-30T17:22:53.724Z,44.25
2022-09-30T17:25:20.389Z,43.72
2022-09-30T17:27:51.538Z,42.50
2022-09-30T17:30:19.168Z,41.85
2022-09-30T17:32:46.463Z,45.33
2022-09-30T17:35:13.617Z,43.58
2022-09-30T17:37:43.813Z,43.35
2022-09-30T17:40:31.698Z,43.17
2022-09-30T17:45:46.268Z,40.95
2022-09-30T17:48:14.577Z,44.88
2022-09-30T17:50:44.335Z,44.88
2022-09-30T17:53:18.014Z,45.85
2022-09-30T17:55:47.945Z,49.55
2022-09-30T17:58:16.167Z,48.75
2022-09-30T18:00:43.077Z,47.60
2022-09-30T18:03:09.937Z,46.92
2022-09-30T18:05:37.511Z,46.75
2022-09-30T18:08:05.807Z,48.03
2022-09-30T18:10:32.833Z,51.20
2022-09-30T18:12:59.781Z,53.08
2022-09-30T18:15:27.213Z,54.45
2022-09-30T18:17:53.982Z,54.58
2022-09-30T18:20:23.328Z,54.47
2022-09-30T18:22:52.292Z,54.63
2022-09-30T18:25:22.781Z,50.67
2022-09-30T18:27:56.230Z,52.30
2022-09-30T18:30:24.565Z,53.85
2022-09-30T18:32:53.046Z,50.50
2022-09-30T18:35:21.577Z,54.25
2022-09-30T18:37:50.923Z,55.45
2022-09-30T18:40:19.688Z,47.33
2022-09-30T18:42:46.666Z,54.75
2022-09-30T18:45:13.662Z,51.55
2022-09-30T18:47:42.351Z,50.80
2022-09-30T18:50:10.729Z,56.03
2022-09-30T18:52:37.621Z,50.20
2022-09-30T18:55:04.645Z,50.00
2022-09-30T18:57:32.566Z,50.40
2022-09-30T18:59:59.294Z,50.78
2022-09-30T19:02:27.305Z,50.75
2022-09-30T19:04:59.205Z,55.35
2022-09-30T19:07:27.061Z,53.55
2022-09-30T19:09:54.838Z,50.92
2022-09-30T19:12:21.649Z,51.05
2022-09-30T19:14:48.530Z,51.83
2022-09-30T19:17:15.745Z,52.75
2022-09-30T19:19:46.396Z,53.47
2022-09-30T19:22:15.784Z,49.85
2022-09-30T19:24:45.538Z,50.55
2022-09-30T19:27:12.201Z,51.08
2022-09-30T19:29:40.836Z,51.15
2022-09-30T19:32:09.972Z,50.47
2022-09-30T19:34:38.901Z,47.65
2022-09-30T19:37:06.696Z,50.70
2022-09-30T19:39:45.284Z,47.90
2022-09-30T19:42:14.473Z,51.95
2022-09-30T19:44:41.985Z,46.70
2022-09-30T19:47:14.694Z,46.75
2022-09-30T19:49:41.445Z,46.92
2022-09-30T19:52:18.377Z,47.17
2022-09-30T19:54:48.918Z,45.72
2022-09-30T19:57:15.528Z,45.63
2022-09-30T19:59:42.259Z,50.50
2022-09-30T20:02:10.834Z,47.25
2022-09-30T20:04:38.907Z,50.30
2022-09-30T20:07:05.522Z,49.53
2022-09-30T20:09:32.158Z,48.58
2022-09-30T20:11:58.787Z,49.20
2022-09-30T20:14:43.994Z,46.00
2022-09-30T20:17:14.438Z,46.92
2022-09-30T20:19:41.034Z,48.47
2022-09-30T20:22:07.699Z,47.90
2022-09-30T20:24:38.558Z,48.78
2022-09-30T20:27:05.372Z,51.53
2022-09-30T20:29:31.965Z,48.95
2022-09-30T20:32:00.728Z,50.55
2022-09-30T20:34:27.435Z,48.65
2022-09-30T20:36:54.025Z,50.83
2022-09-30T20:39:20.729Z,47.22
2022-09-30T20:41:48.941Z,47.85
2022-09-30T20:44:17.130Z,53.03
2022-09-30T20:46:44.045Z,50.97
2022-09-30T20:49:10.782Z,49.92
2022-09-30T20:51:37.762Z,50.55
2022-09-30T20:54:04.354Z,52.08
2022-09-30T20:56:49.597Z,50.78
2022-09-30T20:59:17.688Z,52.15
2022-09-30T21:01:44.385Z,54.22
2022-09-30T21:04:11.340Z,52.42
2022-09-30T21:06:37.991Z,52.65
2022-09-30T21:09:05.651Z,53.65
2022-09-30T21:11:33.417Z,52.95
2022-09-30T21:14:00.253Z,57.08
2022-09-30T21:16:27.045Z,59.08
2022-09-30T21:18:53.809Z,55.38
2022-09-30T21:21:21.691Z,56.15
2022-09-30T21:23:48.567Z,57.88
2022-09-30T21:26:17.089Z,55.10
2022-09-30T21:28:48.834Z,51.45
2022-09-30T21:31:22.153Z,53.70
2022-09-30T21:33:53.403Z,52.63
2022-09-30T21:36:21.320Z,54.63
2022-09-30T21:38:51.345Z,51.40
2022-09-30T21:41:19.681Z,53.28
2022-09-30T21:43:47.128Z,55.10
2022-09-30T21:46:15.370Z,57.13
2022-09-30T21:48:42.748Z,57.58
2022-09-30T21:51:10.198Z,57.30
2022-09-30T21:53:39.027Z,55.30
2022-09-30T21:56:06.664Z,57.50
2022-09-30T21:58:33.625Z,59.67
2022-09-30T22:01:02.709Z,60.03
2022-09-30T22:03:30.962Z,66.72
2022-09-30T22:05:58.759Z,71.30
2022-09-30T22:08:26.494Z,67.95
2022-09-30T22:10:53.305Z,63.70
2022-09-30T22:13:20.032Z,65.72
2022-09-30T22:15:47.017Z,67.88
2022-09-30T22:18:18.513Z,66.50
2022-09-30T22:20:46.137Z,72.80
2022-09-30T22:23:13.120Z,69.18
2022-09-30T22:25:40.485Z,67.80
2022-09-30T22:28:07.649Z,69.43
2022-09-30T22:30:35.307Z,69.32
2022-09-30T22:33:20.541Z,65.93
2022-09-30T22:36:05.690Z,64.70
2022-09-30T22:38:32.333Z,68.78
2022-09-30T22:40:59.712Z,68.03
2022-09-30T22:43:26.985Z,69.30
2022-09-30T22:46:08.159Z,65.50
2022-09-30T22:48:35.780Z,65.57
2022-09-30T22:51:03.429Z,69.70
2022-09-30T22:53:30.126Z,67.47
2022-09-30T22:55:56.759Z,68.35
2022-09-30T22:58:26.604Z,66.30
2022-09-30T23:00:58.715Z,68.45
2022-09-30T23:03:25.648Z,68.53
2022-09-30T23:05:53.097Z,72.00
2022-09-30T23:08:19.843Z,71.50
2022-09-30T23:10:50.362Z,69.45
2022-09-30T23:13:20.256Z,68.95
2022-09-30T23:15:47.924Z,70.43
2022-09-30T23:18:17.223Z,69.60
2022-09-30T23:21:03.016Z,68.88
2022-09-30T23:23:31.451Z,66.97
2022-09-30T23:26:05.317Z,64.40
2022-09-30T23:28:32.197Z,64.40
2022-09-30T23:31:09.351Z,63.95
2022-09-30T23:33:43.822Z,65.90
2022-09-30T23:36:10.591Z,63.47
2022-09-30T23:38:37.221Z,61.78
2022-09-30T23:41:05.243Z,67.15
2022-09-30T23:43:34.209Z,68.65
2022-09-30T23:46:01.858Z,69.65
2022-09-30T23:48:28.709Z,64.47
2022-09-30T23:50:55.623Z,67.65
2022-09-30T23:53:23.087Z,68.50
2022-09-30T23:56:00.917Z,72.97
2022-09-30T23:58:27.510Z,70.10
